sensor_id;sensor_type;location;lat;lon;timestamp;P1;durP1;ratioP1;P2;durP2;ratioP2
76204;SDS011;64986;55.672;37.628;2023-11-19T00:00:18;7.25;;;3.58;;
76204;SDS011;64986;55.672;37.628;2023-11-19T00:02:43;7.10;;;2.90;;
76204;SDS011;64986;55.672;37.628;2023-11-19T00:05:09;5.50;;;2.80;;
76204;SDS011;64986;55.672;37.628;2023-11-19T00:07:36;7.80;;;3.60;;
76204;SDS011;64986;55.672;37.628;2023-11-19T00:10:02;6.90;;;2.45;;
76204;SDS011;64986;55.672;37.628;2023-11-19T00:12:32;7.57;;;3.20;;
76204;SDS011;64986;55.672;37.628;2023-11-19T00:14:57;7.30;;;2.92;;
76204;SDS011;64986;55.672;37.628;2023-11-19T00:17:22;8.40;;;3.05;;
76204;SDS011;64986;55.672;37.628;2023-11-19T00:19:47;6.63;;;3.13;;
76204;SDS011;64986;55.672;37.628;2023-11-19T00:22:14;11.55;;;4.28;;
76204;SDS011;64986;55.672;37.628;2023-11-19T00:24:39;9.90;;;4.28;;
76204;SDS011;64986;55.672;37.628;2023-11-19T00:27:05;9.15;;;3.78;;
76204;SDS011;64986;55.672;37.628;2023-11-19T00:29:32;8.55;;;3.33;;
76204;SDS011;64986;55.672;37.628;2023-11-19T00:31:58;7.75;;;4.20;;
76204;SDS011;64986;55.672;37.628;2023-11-19T00:34:23;8.60;;;3.03;;
76204;SDS011;64986;55.672;37.628;2023-11-19T00:36:48;6.78;;;3.15;;
76204;SDS011;64986;55.672;37.628;2023-11-19T00:39:14;8.73;;;3.63;;
76204;SDS011;64986;55.672;37.628;2023-11-19T00:41:40;7.80;;;3.47;;
76204;SDS011;64986;55.672;37.628;2023-11-19T00:44:05;8.57;;;3.80;;
76204;SDS011;64986;55.672;37.628;2023-11-19T00:46:31;7.60;;;3.70;;
76204;SDS011;64986;55.672;37.628;2023-11-19T00:48:58;8.20;;;4.10;;
76204;SDS011;64986;55.672;37.628;2023-11-19T00:51:24;9.52;;;3.85;;
76204;SDS011;64986;55.672;37.628;2023-11-19T00:53:51;9.30;;;3.47;;
76204;SDS011;64986;55.672;37.628;2023-11-19T00:56:18;10.20;;;3.63;;
76204;SDS011;64986;55.672;37.628;2023-11-19T00:58:44;9.30;;;3.78;;
76204;SDS011;64986;55.672;37.628;2023-11-19T01:01:11;9.60;;;3.47;;
76204;SDS011;64986;55.672;37.628;2023-11-19T01:03:36;9.73;;;3.38;;
76204;SDS011;64986;55.672;37.628;2023-11-19T01:06:02;10.10;;;4.00;;
76204;SDS011;64986;55.672;37.628;2023-11-19T01:08:27;9.30;;;3.90;;
76204;SDS011;64986;55.672;37.628;2023-11-19T01:10:53;7.28;;;3.45;;
76204;SDS011;64986;55.672;37.628;2023-11-19T01:13:18;8.10;;;4.20;;
76204;SDS011;64986;55.672;37.628;2023-11-19T01:15:43;10.13;;;4.03;;
76204;SDS011;64986;55.672;37.628;2023-11-19T01:18:09;8.45;;;3.60;;
76204;SDS011;64986;55.672;37.628;2023-11-19T01:20:34;10.18;;;3.88;;
76204;SDS011;64986;55.672;37.628;2023-11-19T01:23:00;6.70;;;3.35;;
76204;SDS011;64986;55.672;37.628;2023-11-19T01:25:25;7.35;;;3.28;;
76204;SDS011;64986;55.672;37.628;2023-11-19T01:27:50;7.03;;;3.50;;
76204;SDS011;64986;55.672;37.628;2023-11-19T01:30:16;9.82;;;3.65;;
76204;SDS011;64986;55.672;37.628;2023-11-19T01:32:41;7.45;;;3.55;;
76204;SDS011;64986;55.672;37.628;2023-11-19T01:35:06;9.00;;;3.50;;
76204;SDS011;64986;55.672;37.628;2023-11-19T01:37:33;6.93;;;3.05;;
76204;SDS011;64986;55.672;37.628;2023-11-19T01:39:59;11.32;;;5.00;;
76204;SDS011;64986;55.672;37.628;2023-11-19T01:42:25;11.95;;;3.88;;
76204;SDS011;64986;55.672;37.628;2023-11-19T01:44:57;10.23;;;4.10;;
76204;SDS011;64986;55.672;37.628;2023-11-19T01:47:23;8.80;;;4.20;;
76204;SDS011;64986;55.672;37.628;2023-11-19T01:49:49;10.93;;;4.45;;
76204;SDS011;64986;55.672;37.628;2023-11-19T01:52:15;8.38;;;3.80;;
76204;SDS011;64986;55.672;37.628;2023-11-19T01:54:40;9.90;;;3.80;;
76204;SDS011;64986;55.672;37.628;2023-11-19T01:57:06;10.95;;;4.40;;
76204;SDS011;64986;55.672;37.628;2023-11-19T01:59:32;12.18;;;4.60;;
76204;SDS011;64986;55.672;37.628;2023-11-19T02:01:57;10.00;;;3.97;;
76204;SDS011;64986;55.672;37.628;2023-11-19T02:04:23;11.40;;;5.00;;
76204;SDS011;64986;55.672;37.628;2023-11-19T02:06:48;11.85;;;4.47;;
76204;SDS011;64986;55.672;37.628;2023-11-19T02:09:16;10.75;;;4.35;;
76204;SDS011;64986;55.672;37.628;2023-11-19T02:11:44;11.98;;;4.13;;
76204;SDS011;64986;55.672;37.628;2023-11-19T02:14:09;11.30;;;4.72;;
76204;SDS011;64986;55.672;37.628;2023-11-19T02:16:36;11.80;;;4.68;;
76204;SDS011;64986;55.672;37.628;2023-11-19T02:19:01;10.63;;;4.47;;
76204;SDS011;64986;55.672;37.628;2023-11-19T02:21:27;9.48;;;4.35;;
76204;SDS011;64986;55.672;37.628;2023-11-19T02:23:52;8.30;;;4.15;;
76204;SDS011;64986;55.672;37.628;2023-11-19T02:26:28;13.20;;;5.40;;
76204;SDS011;64986;55.672;37.628;2023-11-19T02:28:58;9.73;;;5.13;;
76204;SDS011;64986;55.672;37.628;2023-11-19T02:31:23;15.95;;;5.63;;
76204;SDS011;64986;55.672;37.628;2023-11-19T02:33:48;12.90;;;5.65;;
76204;SDS011;64986;55.672;37.628;2023-11-19T02:36:15;10.18;;;4.50;;
76204;SDS011;64986;55.672;37.628;2023-11-19T02:38:41;17.35;;;6.05;;
76204;SDS011;64986;55.672;37.628;2023-11-19T02:41:07;12.80;;;5.80;;
76204;SDS011;64986;55.672;37.628;2023-11-19T02:43:33;17.38;;;6.20;;
76204;SDS011;64986;55.672;37.628;2023-11-19T02:46:02;11.93;;;5.03;;
76204;SDS011;64986;55.672;37.628;2023-11-19T02:48:29;11.23;;;4.88;;
76204;SDS011;64986;55.672;37.628;2023-11-19T02:50:55;9.10;;;4.22;;
76204;SDS011;64986;55.672;37.628;2023-11-19T02:53:23;12.32;;;4.80;;
76204;SDS011;64986;55.672;37.628;2023-11-19T02:55:50;15.25;;;4.53;;
76204;SDS011;64986;55.672;37.628;2023-11-19T02:58:15;11.43;;;5.05;;
76204;SDS011;64986;55.672;37.628;2023-11-19T03:00:49;15.73;;;4.88;;
76204;SDS011;64986;55.672;37.628;2023-11-19T03:03:22;13.45;;;5.70;;
76204;SDS011;64986;55.672;37.628;2023-11-19T03:05:47;12.75;;;5.47;;
76204;SDS011;64986;55.672;37.628;2023-11-19T03:08:13;14.73;;;6.60;;
76204;SDS011;64986;55.672;37.628;2023-11-19T03:10:39;18.88;;;6.32;;
76204;SDS011;64986;55.672;37.628;2023-11-19T03:13:04;17.70;;;6.47;;
76204;SDS011;64986;55.672;37.628;2023-11-19T03:15:29;23.55;;;7.35;;
76204;SDS011;64986;55.672;37.628;2023-11-19T03:17:55;22.80;;;7.78;;
76204;SDS011;64986;55.672;37.628;2023-11-19T03:20:20;21.70;;;7.53;;
76204;SDS011;64986;55.672;37.628;2023-11-19T03:22:46;19.48;;;7.38;;
76204;SDS011;64986;55.672;37.628;2023-11-19T03:25:11;28.88;;;10.57;;
76204;SDS011;64986;55.672;37.628;2023-11-19T03:27:37;19.65;;;8.40;;
76204;SDS011;64986;55.672;37.628;2023-11-19T03:30:03;25.70;;;8.55;;
76204;SDS011;64986;55.672;37.628;2023-11-19T03:32:30;25.95;;;8.23;;
76204;SDS011;64986;55.672;37.628;2023-11-19T03:34:55;24.40;;;7.70;;
76204;SDS011;64986;55.672;37.628;2023-11-19T03:37:21;20.60;;;8.30;;
76204;SDS011;64986;55.672;37.628;2023-11-19T03:39:46;18.33;;;8.30;;
76204;SDS011;64986;55.672;37.628;2023-11-19T03:42:11;22.75;;;9.27;;
76204;SDS011;64986;55.672;37.628;2023-11-19T03:44:38;22.50;;;9.68;;
76204;SDS011;64986;55.672;37.628;2023-11-19T03:47:04;29.98;;;10.10;;
76204;SDS011;64986;55.672;37.628;2023-11-19T03:49:29;21.27;;;8.27;;
76204;SDS011;64986;55.672;37.628;2023-11-19T03:51:54;20.13;;;8.77;;
76204;SDS011;64986;55.672;37.628;2023-11-19T03:54:20;31.88;;;11.43;;
76204;SDS011;64986;55.672;37.628;2023-11-19T03:56:46;31.15;;;11.75;;
76204;SDS011;64986;55.672;37.628;2023-11-19T03:59:11;29.20;;;10.57;;
76204;SDS011;64986;55.672;37.628;2023-11-19T04:01:37;34.40;;;11.48;;
76204;SDS011;64986;55.672;37.628;2023-11-19T04:04:02;29.85;;;11.25;;
76204;SDS011;64986;55.672;37.628;2023-11-19T04:06:28;45.97;;;13.07;;
76204;SDS011;64986;55.672;37.628;2023-11-19T04:08:53;32.95;;;10.38;;
76204;SDS011;64986;55.672;37.628;2023-11-19T04:11:18;30.73;;;9.23;;
76204;SDS011;64986;55.672;37.628;2023-11-19T04:13:44;28.83;;;9.60;;
76204;SDS011;64986;55.672;37.628;2023-11-19T04:16:09;35.20;;;10.93;;
76204;SDS011;64986;55.672;37.628;2023-11-19T04:18:34;25.73;;;10.63;;
76204;SDS011;64986;55.672;37.628;2023-11-19T04:20:59;27.23;;;9.63;;
76204;SDS011;64986;55.672;37.628;2023-11-19T04:23:25;32.95;;;10.90;;
76204;SDS011;64986;55.672;37.628;2023-11-19T04:25:51;28.70;;;10.50;;
76204;SDS011;64986;55.672;37.628;2023-11-19T04:28:17;34.53;;;10.10;;
76204;SDS011;64986;55.672;37.628;2023-11-19T04:30:42;28.33;;;10.27;;
76204;SDS011;64986;55.672;37.628;2023-11-19T04:33:09;28.38;;;11.73;;
76204;SDS011;64986;55.672;37.628;2023-11-19T04:35:34;31.08;;;10.40;;
76204;SDS011;64986;55.672;37.628;2023-11-19T04:38:00;28.10;;;9.80;;
76204;SDS011;64986;55.672;37.628;2023-11-19T04:40:25;25.08;;;9.90;;
76204;SDS011;64986;55.672;37.628;2023-11-19T04:42:51;28.13;;;10.27;;
76204;SDS011;64986;55.672;37.628;2023-11-19T04:45:16;23.80;;;10.55;;
76204;SDS011;64986;55.672;37.628;2023-11-19T04:47:44;20.55;;;8.70;;
76204;SDS011;64986;55.672;37.628;2023-11-19T04:50:10;20.45;;;9.73;;
76204;SDS011;64986;55.672;37.628;2023-11-19T04:52:38;20.58;;;9.05;;
76204;SDS011;64986;55.672;37.628;2023-11-19T04:55:05;19.85;;;8.63;;
76204;SDS011;64986;55.672;37.628;2023-11-19T04:57:31;18.17;;;7.97;;
76204;SDS011;64986;55.672;37.628;2023-11-19T04:59:57;16.90;;;7.15;;
76204;SDS011;64986;55.672;37.628;2023-11-19T05:02:23;13.85;;;6.25;;
76204;SDS011;64986;55.672;37.628;2023-11-19T05:04:48;15.43;;;6.53;;
76204;SDS011;64986;55.672;37.628;2023-11-19T05:07:14;14.50;;;6.90;;
76204;SDS011;64986;55.672;37.628;2023-11-19T05:09:39;14.85;;;5.68;;
76204;SDS011;64986;55.672;37.628;2023-11-19T05:12:05;11.05;;;5.70;;
76204;SDS011;64986;55.672;37.628;2023-11-19T05:14:33;11.45;;;5.95;;
76204;SDS011;64986;55.672;37.628;2023-11-19T05:16:59;19.08;;;6.78;;
76204;SDS011;64986;55.672;37.628;2023-11-19T05:19:24;21.60;;;6.88;;
76204;SDS011;64986;55.672;37.628;2023-11-19T05:21:49;14.60;;;6.70;;
76204;SDS011;64986;55.672;37.628;2023-11-19T05:24:17;19.58;;;6.47;;
76204;SDS011;64986;55.672;37.628;2023-11-19T05:26:42;16.58;;;7.38;;
76204;SDS011;64986;55.672;37.628;2023-11-19T05:29:08;14.63;;;6.85;;
76204;SDS011;64986;55.672;37.628;2023-11-19T05:31:33;28.70;;;9.43;;
76204;SDS011;64986;55.672;37.628;2023-11-19T05:33:59;14.30;;;6.95;;
76204;SDS011;64986;55.672;37.628;2023-11-19T05:36:24;19.15;;;6.72;;
76204;SDS011;64986;55.672;37.628;2023-11-19T05:38:49;12.95;;;6.45;;
76204;SDS011;64986;55.672;37.628;2023-11-19T05:41:15;13.85;;;5.88;;
76204;SDS011;64986;55.672;37.628;2023-11-19T05:43:40;14.02;;;7.15;;
76204;SDS011;64986;55.672;37.628;2023-11-19T05:46:06;13.57;;;6.45;;
76204;SDS011;64986;55.672;37.628;2023-11-19T05:48:31;12.98;;;6.15;;
76204;SDS011;64986;55.672;37.628;2023-11-19T05:50:57;13.27;;;6.30;;
76204;SDS011;64986;55.672;37.628;2023-11-19T05:53:22;14.65;;;5.85;;
76204;SDS011;64986;55.672;37.628;2023-11-19T05:55:48;9.18;;;4.43;;
76204;SDS011;64986;55.672;37.628;2023-11-19T05:58:25;15.43;;;6.88;;
76204;SDS011;64986;55.672;37.628;2023-11-19T06:00:51;14.25;;;7.05;;
76204;SDS011;64986;55.672;37.628;2023-11-19T06:03:17;15.77;;;5.68;;
76204;SDS011;64986;55.672;37.628;2023-11-19T06:05:45;15.05;;;6.47;;
76204;SDS011;64986;55.672;37.628;2023-11-19T06:08:11;14.15;;;6.97;;
76204;SDS011;64986;55.672;37.628;2023-11-19T06:10:38;14.98;;;6.68;;
76204;SDS011;64986;55.672;37.628;2023-11-19T06:13:04;13.55;;;7.10;;
76204;SDS011;64986;55.672;37.628;2023-11-19T06:15:30;13.63;;;6.15;;
76204;SDS011;64986;55.672;37.628;2023-11-19T06:17:55;19.05;;;7.90;;
76204;SDS011;64986;55.672;37.628;2023-11-19T06:20:23;15.50;;;6.95;;
76204;SDS011;64986;55.672;37.628;2023-11-19T06:22:48;19.63;;;7.47;;
76204;SDS011;64986;55.672;37.628;2023-11-19T06:25:14;13.05;;;7.13;;
76204;SDS011;64986;55.672;37.628;2023-11-19T06:27:40;15.90;;;7.25;;
76204;SDS011;64986;55.672;37.628;2023-11-19T06:30:06;18.38;;;8.10;;
76204;SDS011;64986;55.672;37.628;2023-11-19T06:32:31;17.42;;;9.35;;
76204;SDS011;64986;55.672;37.628;2023-11-19T06:34:57;19.90;;;9.07;;
76204;SDS011;64986;55.672;37.628;2023-11-19T06:37:23;21.92;;;8.90;;
76204;SDS011;64986;55.672;37.628;2023-11-19T06:39:48;15.05;;;6.65;;
76204;SDS011;64986;55.672;37.628;2023-11-19T06:42:14;15.98;;;8.25;;
76204;SDS011;64986;55.672;37.628;2023-11-19T06:44:39;16.70;;;8.85;;
76204;SDS011;64986;55.672;37.628;2023-11-19T06:47:04;18.45;;;10.25;;
76204;SDS011;64986;55.672;37.628;2023-11-19T06:49:30;24.85;;;10.70;;
76204;SDS011;64986;55.672;37.628;2023-11-19T06:51:55;18.15;;;8.70;;
76204;SDS011;64986;55.672;37.628;2023-11-19T06:54:21;22.10;;;10.00;;
76204;SDS011;64986;55.672;37.628;2023-11-19T06:56:47;15.98;;;8.68;;
76204;SDS011;64986;55.672;37.628;2023-11-19T06:59:13;25.08;;;8.70;;
76204;SDS011;64986;55.672;37.628;2023-11-19T07:01:39;16.48;;;8.23;;
76204;SDS011;64986;55.672;37.628;2023-11-19T07:04:04;20.23;;;6.88;;
76204;SDS011;64986;55.672;37.628;2023-11-19T07:06:34;16.25;;;8.00;;
76204;SDS011;64986;55.672;37.628;2023-11-19T07:09:00;19.08;;;7.93;;
76204;SDS011;64986;55.672;37.628;2023-11-19T07:11:34;13.67;;;7.07;;
76204;SDS011;64986;55.672;37.628;2023-11-19T07:14:00;18.75;;;8.90;;
76204;SDS011;64986;55.672;37.628;2023-11-19T07:16:25;17.27;;;8.98;;
76204;SDS011;64986;55.672;37.628;2023-11-19T07:18:51;12.23;;;7.00;;
76204;SDS011;64986;55.672;37.628;2023-11-19T07:21:16;15.25;;;7.40;;
76204;SDS011;64986;55.672;37.628;2023-11-19T07:23:42;15.90;;;8.45;;
76204;SDS011;64986;55.672;37.628;2023-11-19T07:26:07;17.50;;;8.85;;
76204;SDS011;64986;55.672;37.628;2023-11-19T07:28:35;17.52;;;8.20;;
76204;SDS011;64986;55.672;37.628;2023-11-19T07:31:01;17.45;;;8.45;;
76204;SDS011;64986;55.672;37.628;2023-11-19T07:33:27;18.45;;;7.30;;
76204;SDS011;64986;55.672;37.628;2023-11-19T07:35:52;22.38;;;8.05;;
76204;SDS011;64986;55.672;37.628;2023-11-19T07:38:18;18.58;;;9.10;;
76204;SDS011;64986;55.672;37.628;2023-11-19T07:40:43;14.25;;;7.93;;
76204;SDS011;64986;55.672;37.628;2023-11-19T07:43:08;15.52;;;7.45;;
76204;SDS011;64986;55.672;37.628;2023-11-19T07:45:34;17.92;;;8.60;;
76204;SDS011;64986;55.672;37.628;2023-11-19T07:47:59;19.42;;;8.40;;
76204;SDS011;64986;55.672;37.628;2023-11-19T07:50:26;20.42;;;8.63;;
76204;SDS011;64986;55.672;37.628;2023-11-19T07:52:51;17.05;;;8.25;;
76204;SDS011;64986;55.672;37.628;2023-11-19T07:55:17;18.80;;;8.15;;
76204;SDS011;64986;55.672;37.628;2023-11-19T07:57:42;16.05;;;7.88;;
76204;SDS011;64986;55.672;37.628;2023-11-19T08:00:08;13.32;;;7.07;;
76204;SDS011;64986;55.672;37.628;2023-11-19T08:02:37;15.90;;;5.97;;
76204;SDS011;64986;55.672;37.628;2023-11-19T08:05:02;13.70;;;6.60;;
76204;SDS011;64986;55.672;37.628;2023-11-19T08:07:28;18.13;;;8.77;;
76204;SDS011;64986;55.672;37.628;2023-11-19T08:09:53;18.15;;;7.97;;
76204;SDS011;64986;55.672;37.628;2023-11-19T08:12:19;17.27;;;8.30;;
76204;SDS011;64986;55.672;37.628;2023-11-19T08:14:44;15.73;;;7.43;;
76204;SDS011;64986;55.672;37.628;2023-11-19T08:17:09;20.10;;;7.97;;
76204;SDS011;64986;55.672;37.628;2023-11-19T08:19:35;17.13;;;8.68;;
76204;SDS011;64986;55.672;37.628;2023-11-19T08:22:00;15.35;;;8.43;;
76204;SDS011;64986;55.672;37.628;2023-11-19T08:24:25;21.55;;;10.43;;
76204;SDS011;64986;55.672;37.628;2023-11-19T08:26:51;14.60;;;7.55;;
76204;SDS011;64986;55.672;37.628;2023-11-19T08:29:16;17.27;;;8.98;;
76204;SDS011;64986;55.672;37.628;2023-11-19T08:31:42;15.88;;;7.82;;
76204;SDS011;64986;55.672;37.628;2023-11-19T08:34:07;15.57;;;8.30;;
76204;SDS011;64986;55.672;37.628;2023-11-19T08:36:34;22.63;;;10.35;;
76204;SDS011;64986;55.672;37.628;2023-11-19T08:38:59;15.00;;;8.55;;
76204;SDS011;64986;55.672;37.628;2023-11-19T08:41:24;15.07;;;7.65;;
76204;SDS011;64986;55.672;37.628;2023-11-19T08:43:50;14.10;;;6.93;;
76204;SDS011;64986;55.672;37.628;2023-11-19T08:46:16;11.18;;;6.15;;
76204;SDS011;64986;55.672;37.628;2023-11-19T08:48:42;13.23;;;6.22;;
76204;SDS011;64986;55.672;37.628;2023-11-19T08:51:07;11.45;;;5.50;;
76204;SDS011;64986;55.672;37.628;2023-11-19T08:53:33;13.15;;;5.53;;
76204;SDS011;64986;55.672;37.628;2023-11-19T08:55:58;12.50;;;5.43;;
76204;SDS011;64986;55.672;37.628;2023-11-19T08:58:23;10.60;;;4.75;;
76204;SDS011;64986;55.672;37.628;2023-11-19T09:00:49;13.40;;;6.05;;
76204;SDS011;64986;55.672;37.628;2023-11-19T09:03:14;11.75;;;5.15;;
76204;SDS011;64986;55.672;37.628;2023-11-19T09:05:39;18.08;;;5.72;;
76204;SDS011;64986;55.672;37.628;2023-11-19T09:08:06;12.02;;;5.40;;
76204;SDS011;64986;55.672;37.628;2023-11-19T09:10:31;8.60;;;4.78;;
76204;SDS011;64986;55.672;37.628;2023-11-19T09:12:56;9.73;;;4.93;;
76204;SDS011;64986;55.672;37.628;2023-11-19T09:15:22;12.70;;;5.00;;
76204;SDS011;64986;55.672;37.628;2023-11-19T09:17:47;12.80;;;5.90;;
76204;SDS011;64986;55.672;37.628;2023-11-19T09:20:13;15.45;;;5.45;;
76204;SDS011;64986;55.672;37.628;2023-11-19T09:22:40;9.75;;;5.65;;
76204;SDS011;64986;55.672;37.628;2023-11-19T09:25:06;9.85;;;4.93;;
76204;SDS011;64986;55.672;37.628;2023-11-19T09:27:31;8.05;;;3.83;;
76204;SDS011;64986;55.672;37.628;2023-11-19T09:29:56;11.32;;;4.95;;
76204;SDS011;64986;55.672;37.628;2023-11-19T09:32:23;10.13;;;4.90;;
76204;SDS011;64986;55.672;37.628;2023-11-19T09:34:49;9.10;;;4.68;;
76204;SDS011;64986;55.672;37.628;2023-11-19T09:37:14;16.17;;;6.18;;
76204;SDS011;64986;55.672;37.628;2023-11-19T09:39:39;8.10;;;4.55;;
76204;SDS011;64986;55.672;37.628;2023-11-19T09:42:08;11.32;;;4.93;;
76204;SDS011;64986;55.672;37.628;2023-11-19T09:44:33;11.82;;;5.22;;
76204;SDS011;64986;55.672;37.628;2023-11-19T09:46:59;10.50;;;5.38;;
76204;SDS011;64986;55.672;37.628;2023-11-19T09:49:24;9.50;;;5.47;;
76204;SDS011;64986;55.672;37.628;2023-11-19T09:51:51;11.45;;;5.20;;
76204;SDS011;64986;55.672;37.628;2023-11-19T09:54:17;10.35;;;5.00;;
76204;SDS011;64986;55.672;37.628;2023-11-19T09:56:42;11.95;;;4.95;;
76204;SDS011;64986;55.672;37.628;2023-11-19T09:59:08;15.35;;;5.78;;
76204;SDS011;64986;55.672;37.628;2023-11-19T10:01:35;10.82;;;5.50;;
76204;SDS011;64986;55.672;37.628;2023-11-19T10:04:01;11.90;;;5.05;;
76204;SDS011;64986;55.672;37.628;2023-11-19T10:06:27;11.48;;;4.57;;
76204;SDS011;64986;55.672;37.628;2023-11-19T10:08:52;10.15;;;4.57;;
76204;SDS011;64986;55.672;37.628;2023-11-19T10:11:18;10.18;;;5.07;;
76204;SDS011;64986;55.672;37.628;2023-11-19T10:13:43;11.05;;;5.43;;
76204;SDS011;64986;55.672;37.628;2023-11-19T10:16:10;8.27;;;4.53;;
76204;SDS011;64986;55.672;37.628;2023-11-19T10:18:37;9.82;;;5.28;;
76204;SDS011;64986;55.672;37.628;2023-11-19T10:21:05;10.30;;;4.80;;
76204;SDS011;64986;55.672;37.628;2023-11-19T10:23:31;13.15;;;5.68;;
76204;SDS011;64986;55.672;37.628;2023-11-19T10:26:02;14.43;;;6.05;;
76204;SDS011;64986;55.672;37.628;2023-11-19T10:28:28;15.15;;;6.00;;
76204;SDS011;64986;55.672;37.628;2023-11-19T10:31:00;9.52;;;5.20;;
76204;SDS011;64986;55.672;37.628;2023-11-19T10:33:27;13.27;;;5.35;;
76204;SDS011;64986;55.672;37.628;2023-11-19T10:35:57;15.90;;;5.45;;
76204;SDS011;64986;55.672;37.628;2023-11-19T10:38:23;9.55;;;4.70;;
76204;SDS011;64986;55.672;37.628;2023-11-19T10:40:49;10.23;;;4.75;;
76204;SDS011;64986;55.672;37.628;2023-11-19T10:43:15;10.45;;;5.13;;
76204;SDS011;64986;55.672;37.628;2023-11-19T10:45:41;8.02;;;4.63;;
76204;SDS011;64986;55.672;37.628;2023-11-19T10:48:06;15.98;;;5.13;;
76204;SDS011;64986;55.672;37.628;2023-11-19T10:50:35;11.75;;;4.90;;
76204;SDS011;64986;55.672;37.628;2023-11-19T10:53:01;15.10;;;5.35;;
76204;SDS011;64986;55.672;37.628;2023-11-19T10:55:28;11.98;;;5.28;;
76204;SDS011;64986;55.672;37.628;2023-11-19T10:58:02;10.90;;;5.22;;
76204;SDS011;64986;55.672;37.628;2023-11-19T11:00:29;13.85;;;5.57;;
76204;SDS011;64986;55.672;37.628;2023-11-19T11:02:56;13.75;;;4.55;;
76204;SDS011;64986;55.672;37.628;2023-11-19T11:05:24;10.55;;;4.63;;
76204;SDS011;64986;55.672;37.628;2023-11-19T11:07:51;8.75;;;4.15;;
76204;SDS011;64986;55.672;37.628;2023-11-19T11:10:17;9.55;;;4.28;;
76204;SDS011;64986;55.672;37.628;2023-11-19T11:12:43;12.45;;;4.13;;
76204;SDS011;64986;55.672;37.628;2023-11-19T11:15:08;10.68;;;4.50;;
76204;SDS011;64986;55.672;37.628;2023-11-19T11:17:36;11.30;;;4.35;;
76204;SDS011;64986;55.672;37.628;2023-11-19T11:20:04;11.75;;;4.20;;
76204;SDS011;64986;55.672;37.628;2023-11-19T11:22:30;6.53;;;3.58;;
76204;SDS011;64986;55.672;37.628;2023-11-19T11:25:34;6.78;;;3.22;;
76204;SDS011;64986;55.672;37.628;2023-11-19T11:33:11;6.47;;;3.45;;
76204;SDS011;64986;55.672;37.628;2023-11-19T11:35:46;6.85;;;3.45;;
76204;SDS011;64986;55.672;37.628;2023-11-19T11:38:15;9.85;;;4.40;;
76204;SDS011;64986;55.672;37.628;2023-11-19T11:40:42;10.70;;;4.50;;
76204;SDS011;64986;55.672;37.628;2023-11-19T11:45:52;7.75;;;4.20;;
76204;SDS011;64986;55.672;37.628;2023-11-19T11:48:17;12.50;;;5.03;;
76204;SDS011;64986;55.672;37.628;2023-11-19T11:50:52;7.20;;;4.00;;
76204;SDS011;64986;55.672;37.628;2023-11-19T11:53:19;9.45;;;4.18;;
76204;SDS011;64986;55.672;37.628;2023-11-19T11:58:13;7.63;;;4.15;;
76204;SDS011;64986;55.672;37.628;2023-11-19T12:00:39;9.60;;;4.75;;
76204;SDS011;64986;55.672;37.628;2023-11-19T12:03:06;12.00;;;5.97;;
76204;SDS011;64986;55.672;37.628;2023-11-19T12:05:47;13.63;;;6.03;;
76204;SDS011;64986;55.672;37.628;2023-11-19T12:08:12;9.80;;;4.70;;
76204;SDS011;64986;55.672;37.628;2023-11-19T12:10:49;16.23;;;7.07;;
76204;SDS011;64986;55.672;37.628;2023-11-19T12:13:16;12.15;;;5.38;;
76204;SDS011;64986;55.672;37.628;2023-11-19T12:18:19;13.18;;;4.88;;
76204;SDS011;64986;55.672;37.628;2023-11-19T12:20:45;8.32;;;4.63;;
76204;SDS011;64986;55.672;37.628;2023-11-19T12:23:10;12.80;;;5.53;;
76204;SDS011;64986;55.672;37.628;2023-11-19T12:25:35;11.07;;;6.00;;
76204;SDS011;64986;55.672;37.628;2023-11-19T12:28:01;10.95;;;4.88;;
76204;SDS011;64986;55.672;37.628;2023-11-19T12:30:29;10.60;;;5.57;;
76204;SDS011;64986;55.672;37.628;2023-11-19T12:32:55;16.08;;;8.32;;
76204;SDS011;64986;55.672;37.628;2023-11-19T12:35:20;13.77;;;6.15;;
76204;SDS011;64986;55.672;37.628;2023-11-19T12:37:46;14.15;;;7.28;;
76204;SDS011;64986;55.672;37.628;2023-11-19T12:42:38;14.88;;;6.53;;
76204;SDS011;64986;55.672;37.628;2023-11-19T12:45:04;19.58;;;10.35;;
76204;SDS011;64986;55.672;37.628;2023-11-19T12:47:29;12.50;;;7.00;;
76204;SDS011;64986;55.672;37.628;2023-11-19T12:49:55;12.13;;;5.93;;
76204;SDS011;64986;55.672;37.628;2023-11-19T12:52:21;9.80;;;5.72;;
76204;SDS011;64986;55.672;37.628;2023-11-19T12:54:48;11.27;;;5.95;;
76204;SDS011;64986;55.672;37.628;2023-11-19T12:57:13;16.23;;;8.07;;
76204;SDS011;64986;55.672;37.628;2023-11-19T12:59:39;12.68;;;6.57;;
76204;SDS011;64986;55.672;37.628;2023-11-19T13:02:04;10.93;;;6.22;;
76204;SDS011;64986;55.672;37.628;2023-11-19T13:04:30;14.27;;;5.57;;
76204;SDS011;64986;55.672;37.628;2023-11-19T13:06:57;12.75;;;6.63;;
76204;SDS011;64986;55.672;37.628;2023-11-19T13:11:49;12.15;;;5.68;;
76204;SDS011;64986;55.672;37.628;2023-11-19T13:14:15;9.35;;;5.15;;
76204;SDS011;64986;55.672;37.628;2023-11-19T13:16:40;9.98;;;5.43;;
76204;SDS011;64986;55.672;37.628;2023-11-19T13:19:07;10.13;;;4.80;;
76204;SDS011;64986;55.672;37.628;2023-11-19T13:21:33;11.38;;;5.65;;
76204;SDS011;64986;55.672;37.628;2023-11-19T13:23:59;10.55;;;5.60;;
76204;SDS011;64986;55.672;37.628;2023-11-19T13:26:25;10.38;;;4.78;;
76204;SDS011;64986;55.672;37.628;2023-11-19T13:28:50;22.85;;;10.80;;
76204;SDS011;64986;55.672;37.628;2023-11-19T13:31:16;15.05;;;7.55;;
76204;SDS011;64986;55.672;37.628;2023-11-19T13:33:42;12.82;;;6.57;;
76204;SDS011;64986;55.672;37.628;2023-11-19T13:36:07;9.10;;;5.40;;
76204;SDS011;64986;55.672;37.628;2023-11-19T13:38:33;11.80;;;6.13;;
76204;SDS011;64986;55.672;37.628;2023-11-19T13:40:58;10.95;;;5.47;;
76204;SDS011;64986;55.672;37.628;2023-11-19T13:43:24;16.30;;;6.55;;
76204;SDS011;64986;55.672;37.628;2023-11-19T13:45:50;16.88;;;7.00;;
76204;SDS011;64986;55.672;37.628;2023-11-19T13:48:15;11.07;;;5.53;;
76204;SDS011;64986;55.672;37.628;2023-11-19T13:50:41;10.35;;;6.03;;
76204;SDS011;64986;55.672;37.628;2023-11-19T13:53:07;16.80;;;7.53;;
76204;SDS011;64986;55.672;37.628;2023-11-19T13:55:33;11.07;;;6.53;;
76204;SDS011;64986;55.672;37.628;2023-11-19T13:57:58;11.80;;;5.53;;
76204;SDS011;64986;55.672;37.628;2023-11-19T14:00:23;13.30;;;6.75;;
76204;SDS011;64986;55.672;37.628;2023-11-19T14:02:49;13.48;;;6.93;;
76204;SDS011;64986;55.672;37.628;2023-11-19T14:05:15;16.30;;;7.30;;
76204;SDS011;64986;55.672;37.628;2023-11-19T14:07:42;15.13;;;8.07;;
76204;SDS011;64986;55.672;37.628;2023-11-19T14:10:08;16.13;;;9.07;;
76204;SDS011;64986;55.672;37.628;2023-11-19T14:12:34;23.67;;;10.18;;
76204;SDS011;64986;55.672;37.628;2023-11-19T14:15:00;24.98;;;9.98;;
76204;SDS011;64986;55.672;37.628;2023-11-19T14:17:26;16.77;;;8.90;;
76204;SDS011;64986;55.672;37.628;2023-11-19T14:19:51;24.10;;;11.70;;
76204;SDS011;64986;55.672;37.628;2023-11-19T14:22:17;18.80;;;8.80;;
76204;SDS011;64986;55.672;37.628;2023-11-19T14:24:42;14.18;;;7.13;;
76204;SDS011;64986;55.672;37.628;2023-11-19T14:27:08;21.83;;;9.85;;
76204;SDS011;64986;55.672;37.628;2023-11-19T14:29:34;21.27;;;9.82;;
76204;SDS011;64986;55.672;37.628;2023-11-19T14:32:00;18.13;;;8.75;;
76204;SDS011;64986;55.672;37.628;2023-11-19T14:34:25;17.80;;;8.98;;